Aydin, Turkey
Current Conditions -  °F | °C
As of 5:50 PM on Thursday 23 Oct 2014 (Local Time) from LTFE Reporting Station
Thunderstorm Thunderstorm  
Wind Chill: 70°   Ceiling: 9000
Heat Index: 70°   Visibility: 5mi
Dew Point: 63°   Wind: 9mph
Humidity: 78%   Direction: 150°SSE
Pressure: 29.74"   Gusts: NA
Location:  37.86°N, 27.84°E
Report Text: LTFE 231450Z 15008KT 8000 -TSRA FEW020CB SCT030 BKN090 21/17 Q1007 TEMPO 24020G35KT 4000 +TSRA
Loading
Personal Weather Stations






























Interactive Weather Map New forecast layout! Learn more

10-Day Weather Forecast

Advertisements
Track Severe Weather on mobile